createdAt,value
2023-02-03T00:04:28.854Z,66.70
2023-02-03T00:06:56.473Z,66.90
2023-02-03T00:09:30.280Z,66.80
2023-02-03T00:12:00.952Z,67.00
2023-02-03T00:14:30.943Z,67.00
2023-02-03T00:16:58.949Z,67.00
2023-02-03T00:19:30.009Z,67.00
2023-02-03T00:21:58.111Z,67.00
2023-02-03T00:24:28.642Z,66.90
2023-02-03T00:26:58.629Z,67.10
2023-02-03T00:29:29.978Z,67.10
2023-02-03T00:31:59.479Z,67.10
2023-02-03T00:34:34.264Z,67.10
2023-02-03T00:37:04.426Z,67.00
2023-02-03T00:39:32.309Z,67.10
2023-02-03T00:42:05.703Z,67.10
2023-02-03T00:44:36.928Z,67.10
2023-02-03T00:47:09.647Z,67.10
2023-02-03T00:49:39.511Z,67.30
2023-02-03T00:52:11.044Z,67.20
2023-02-03T00:54:40.729Z,67.40
2023-02-03T00:57:11.962Z,67.30
2023-02-03T00:59:46.325Z,67.10
2023-02-03T01:02:16.996Z,67.10
2023-02-03T01:04:49.174Z,67.30
2023-02-03T01:07:20.126Z,67.20
2023-02-03T01:09:51.625Z,67.30
2023-02-03T01:12:25.326Z,67.30
2023-02-03T01:14:56.166Z,67.40
2023-02-03T01:17:25.917Z,67.30
2023-02-03T01:19:56.332Z,67.40
2023-02-03T01:22:27.469Z,67.40
2023-02-03T01:24:57.922Z,67.50
2023-02-03T01:27:28.379Z,67.40
2023-02-03T01:29:58.560Z,67.40
2023-02-03T01:32:29.744Z,67.50
2023-02-03T01:35:01.601Z,67.50
2023-02-03T01:37:29.976Z,67.50
2023-02-03T01:40:00.370Z,67.50
2023-02-03T01:42:28.640Z,67.60
2023-02-03T01:45:00.444Z,67.60
2023-02-03T01:47:51.961Z,67.60
2023-02-03T01:50:35.794Z,67.70
2023-02-03T01:53:12.253Z,67.60
2023-02-03T01:55:47.955Z,67.50
2023-02-03T01:58:32.758Z,67.60
2023-02-03T02:01:03.055Z,67.70
2023-02-03T02:04:07.448Z,67.90
2023-02-03T02:06:39.927Z,67.70
2023-02-03T02:09:12.770Z,67.80
2023-02-03T02:11:41.887Z,67.80
2023-02-03T02:14:11.440Z,67.90
2023-02-03T02:17:01.096Z,67.90
2023-02-03T02:19:56.242Z,67.90
2023-02-03T02:22:56.126Z,67.90
2023-02-03T02:26:07.587Z,67.90
2023-02-03T02:29:04.353Z,67.80
2023-02-03T02:32:22.280Z,67.90
2023-02-03T02:35:22.778Z,67.90
2023-02-03T02:38:31.668Z,67.90
2023-02-03T02:41:07.857Z,67.90
2023-02-03T02:44:10.174Z,68.10
2023-02-03T02:46:59.620Z,68.00
2023-02-03T02:49:58.586Z,68.00
2023-02-03T02:52:47.941Z,68.00
2023-02-03T02:55:38.948Z,68.00
2023-02-03T02:58:31.123Z,68.00
2023-02-03T03:01:02.415Z,67.90
2023-02-03T03:03:29.522Z,68.10
2023-02-03T03:06:05.279Z,68.10
2023-02-03T03:08:48.425Z,68.00
2023-02-03T03:11:23.717Z,68.00
2023-02-03T03:13:55.483Z,68.10
2023-02-03T03:16:29.823Z,68.10
2023-02-03T03:19:11.265Z,68.10
2023-02-03T03:21:55.031Z,68.00
2023-02-03T03:24:31.302Z,68.00
2023-02-03T03:27:11.864Z,68.10
2023-02-03T03:30:02.922Z,68.10
2023-02-03T03:32:35.349Z,68.10
2023-02-03T03:35:11.312Z,68.10
2023-02-03T03:38:19.110Z,68.10
2023-02-03T03:41:02.015Z,68.00
2023-02-03T03:46:26.383Z,68.20
2023-02-03T03:49:02.366Z,68.20
2023-02-03T03:51:42.882Z,68.30
2023-02-03T03:54:14.109Z,68.10
2023-02-03T03:57:00.596Z,68.30
2023-02-03T03:59:34.662Z,68.20
2023-02-03T04:02:05.086Z,68.40
2023-02-03T04:04:37.721Z,68.30
2023-02-03T04:07:08.453Z,68.20
2023-02-03T04:09:40.100Z,68.30
2023-02-03T04:12:24.476Z,68.30
2023-02-03T04:14:58.890Z,68.10
2023-02-03T04:17:29.250Z,68.10
2023-02-03T04:19:59.585Z,68.20
2023-02-03T04:22:32.805Z,68.20
2023-02-03T04:25:03.454Z,68.20
2023-02-03T04:27:34.531Z,68.20
2023-02-03T04:30:04.590Z,68.30
2023-02-03T04:32:34.192Z,68.20
2023-02-03T04:35:08.001Z,68.80
2023-02-03T04:37:44.499Z,68.40
2023-02-03T04:42:56.321Z,68.30
2023-02-03T04:45:28.164Z,68.30
2023-02-03T04:48:00.241Z,68.30
2023-02-03T04:50:29.783Z,68.40
2023-02-03T04:53:02.820Z,68.30
2023-02-03T04:55:33.299Z,68.20
2023-02-03T04:58:04.399Z,68.30
2023-02-03T05:00:31.542Z,68.40
2023-02-03T05:03:03.124Z,68.30
2023-02-03T05:05:32.806Z,68.20
2023-02-03T05:08:02.773Z,68.30
2023-02-03T05:10:34.518Z,68.30
2023-02-03T05:13:03.573Z,68.20
2023-02-03T05:15:33.605Z,68.30
2023-02-03T05:18:04.531Z,68.40
2023-02-03T05:20:36.350Z,68.40
2023-02-03T05:23:11.610Z,68.30
2023-02-03T05:25:53.626Z,68.30
2023-02-03T05:28:21.739Z,68.40
2023-02-03T05:30:53.949Z,69.10
2023-02-03T05:33:25.666Z,68.40
2023-02-03T05:35:55.949Z,68.40
2023-02-03T05:38:33.645Z,68.30
2023-02-03T05:41:24.439Z,68.30
2023-02-03T05:46:40.797Z,68.20
2023-02-03T05:49:10.343Z,68.20
2023-02-03T05:51:43.723Z,68.20
2023-02-03T05:54:14.785Z,68.10
2023-02-03T05:56:45.552Z,68.20
2023-02-03T05:59:14.648Z,68.00
2023-02-03T06:01:45.225Z,67.90
2023-02-03T06:04:18.380Z,67.90
2023-02-03T06:06:50.860Z,67.80
2023-02-03T06:09:22.415Z,67.70
2023-02-03T06:11:55.678Z,67.70
2023-02-03T06:14:23.863Z,67.60
2023-02-03T06:16:52.673Z,67.40
2023-02-03T06:19:25.529Z,67.30
2023-02-03T06:21:55.772Z,67.20
2023-02-03T06:24:26.561Z,67.10
2023-02-03T06:26:57.278Z,66.80
2023-02-03T06:29:29.105Z,66.60
2023-02-03T06:32:00.928Z,66.50
2023-02-03T06:34:30.181Z,66.40
2023-02-03T06:36:59.083Z,66.40
2023-02-03T06:42:12.045Z,66.30
2023-02-03T06:44:39.985Z,66.20
2023-02-03T06:47:11.286Z,66.30
2023-02-03T06:49:41.430Z,66.40
2023-02-03T06:52:12.948Z,66.40
2023-02-03T06:54:42.318Z,66.60
2023-02-03T06:57:11.383Z,66.60
2023-02-03T07:02:24.133Z,66.40
2023-02-03T07:04:54.074Z,66.50
2023-02-03T07:07:24.577Z,66.10
2023-02-03T07:09:56.774Z,66.50
2023-02-03T07:12:25.790Z,66.30
2023-02-03T07:14:54.030Z,66.40
2023-02-03T07:17:24.422Z,66.60
2023-02-03T07:19:56.902Z,66.30
2023-02-03T07:22:25.226Z,66.60
2023-02-03T07:25:00.181Z,66.50
2023-02-03T07:27:32.608Z,66.60
2023-02-03T07:30:07.795Z,66.60
2023-02-03T07:32:38.576Z,66.50
2023-02-03T07:35:06.103Z,66.70
2023-02-03T07:37:37.373Z,66.70
2023-02-03T07:43:37.993Z,66.40
2023-02-03T07:46:08.708Z,66.40
2023-02-03T07:48:40.134Z,66.30
2023-02-03T07:51:08.886Z,66.20
2023-02-03T07:53:39.951Z,66.40
2023-02-03T07:56:07.096Z,66.20
2023-02-03T07:58:38.677Z,66.30
2023-02-03T08:01:21.152Z,66.50
2023-02-03T08:03:50.438Z,66.50
2023-02-03T08:06:19.856Z,66.40
2023-02-03T08:08:51.316Z,66.20
2023-02-03T08:11:19.322Z,66.20
2023-02-03T08:13:48.378Z,66.20
2023-02-03T08:16:19.967Z,66.30
2023-02-03T08:18:48.787Z,66.30
2023-02-03T08:21:20.680Z,66.40
2023-02-03T08:23:48.851Z,66.10
2023-02-03T08:26:17.106Z,66.10
2023-02-03T08:28:52.052Z,65.90
2023-02-03T08:31:21.583Z,66.10
2023-02-03T08:33:52.881Z,66.00
2023-02-03T08:36:24.258Z,65.80
2023-02-03T08:38:56.213Z,65.60
2023-02-03T08:41:26.700Z,65.00
2023-02-03T08:44:00.033Z,64.40
2023-02-03T08:46:31.993Z,63.90
2023-02-03T08:49:05.740Z,63.70
2023-02-03T08:51:37.219Z,63.30
2023-02-03T08:54:08.518Z,62.50
2023-02-03T08:56:37.886Z,61.40
2023-02-03T08:59:09.925Z,61.40
2023-02-03T09:01:43.813Z,61.30
2023-02-03T09:04:15.103Z,61.20
2023-02-03T09:06:45.534Z,61.00
2023-02-03T09:09:14.050Z,61.20
2023-02-03T09:11:47.750Z,61.00
2023-02-03T09:14:20.630Z,61.60
2023-02-03T09:16:52.171Z,61.00
2023-02-03T09:19:20.382Z,60.90
2023-02-03T09:21:51.777Z,61.40
2023-02-03T09:24:21.179Z,60.80
2023-02-03T09:26:52.200Z,60.40
2023-02-03T09:29:20.616Z,60.50
2023-02-03T09:31:49.717Z,60.70
2023-02-03T09:34:20.678Z,60.50
2023-02-03T09:36:54.528Z,60.30
2023-02-03T09:39:24.987Z,60.60
2023-02-03T09:42:22.115Z,60.30
2023-02-03T09:45:22.211Z,60.50
2023-02-03T09:47:57.512Z,60.50
2023-02-03T09:50:34.843Z,60.30
2023-02-03T09:53:21.339Z,59.90
2023-02-03T09:55:51.963Z,59.40
2023-02-03T09:58:25.314Z,59.00
2023-02-03T10:01:04.209Z,58.40
2023-02-03T10:03:58.527Z,58.10
2023-02-03T10:06:56.085Z,57.70
2023-02-03T10:10:09.269Z,57.50
2023-02-03T10:13:00.269Z,56.50
2023-02-03T10:16:00.200Z,56.70
2023-02-03T10:18:44.455Z,56.60
2023-02-03T10:21:41.716Z,56.50
2023-02-03T10:24:33.234Z,56.70
2023-02-03T10:27:01.974Z,56.60
2023-02-03T10:29:45.520Z,56.50
2023-02-03T10:32:15.694Z,56.70
2023-02-03T10:34:50.078Z,57.20
2023-02-03T10:37:56.594Z,57.50
2023-02-03T10:40:31.734Z,58.10
2023-02-03T10:43:23.829Z,57.70
2023-02-03T10:45:54.286Z,57.80
2023-02-03T10:48:26.054Z,57.90
2023-02-03T10:50:57.577Z,58.00
2023-02-03T10:53:39.138Z,57.90
2023-02-03T10:56:14.030Z,57.80
2023-02-03T10:59:01.170Z,58.00
2023-02-03T11:01:49.580Z,58.00
2023-02-03T11:04:33.741Z,58.00
2023-02-03T11:07:25.205Z,58.10
2023-02-03T11:09:53.507Z,57.60
2023-02-03T11:12:23.884Z,57.70
2023-02-03T11:14:57.678Z,57.90
2023-02-03T11:17:30.266Z,57.80
2023-02-03T11:20:20.095Z,57.70
2023-02-03T11:22:53.798Z,58.20
2023-02-03T11:25:32.858Z,58.50
2023-02-03T11:28:07.194Z,58.10
2023-02-03T11:30:57.978Z,58.30
2023-02-03T11:33:30.199Z,57.90
2023-02-03T11:35:59.573Z,57.90
2023-02-03T11:38:39.425Z,57.10
2023-02-03T11:41:17.445Z,56.80
2023-02-03T11:43:47.116Z,57.10
2023-02-03T11:46:21.971Z,57.00
2023-02-03T11:49:34.943Z,57.00
2023-02-03T11:52:39.497Z,57.90
2023-02-03T11:55:35.686Z,58.00
2023-02-03T11:58:41.248Z,58.10
2023-02-03T12:01:27.739Z,58.90
2023-02-03T12:04:33.369Z,57.80
2023-02-03T12:07:21.411Z,57.90
2023-02-03T12:10:44.201Z,58.10
2023-02-03T12:13:36.891Z,58.40
2023-02-03T12:16:35.161Z,58.20
2023-02-03T12:19:56.516Z,58.30
2023-02-03T12:22:53.663Z,58.10
2023-02-03T12:25:47.962Z,58.20
2023-02-03T12:28:48.819Z,58.00
2023-02-03T12:31:31.382Z,58.10
2023-02-03T12:34:40.185Z,58.00
2023-02-03T12:37:23.854Z,58.20
2023-02-03T12:40:13.400Z,58.10
2023-02-03T12:42:52.358Z,58.00
2023-02-03T12:45:40.047Z,58.10
2023-02-03T12:48:24.063Z,58.20
2023-02-03T12:50:58.467Z,58.10
2023-02-03T12:53:57.659Z,58.30
2023-02-03T12:56:44.277Z,58.20
2023-02-03T12:59:34.838Z,58.60
2023-02-03T13:02:22.095Z,58.00
2023-02-03T13:05:34.107Z,57.40
2023-02-03T13:08:18.849Z,56.90
2023-02-03T13:11:18.977Z,56.40
2023-02-03T13:14:07.892Z,55.80
2023-02-03T13:16:48.978Z,55.30
2023-02-03T13:19:24.766Z,54.80
2023-02-03T13:21:56.098Z,54.30
2023-02-03T13:24:31.748Z,53.70
2023-02-03T13:27:38.989Z,53.40
2023-02-03T13:30:19.771Z,53.00
2023-02-03T13:33:29.749Z,52.60
2023-02-03T13:36:06.442Z,52.20
2023-02-03T13:39:15.089Z,51.60
2023-02-03T13:41:56.171Z,51.30
2023-02-03T13:44:30.243Z,51.00
2023-02-03T13:47:12.833Z,50.80
2023-02-03T13:49:54.563Z,50.60
2023-02-03T13:53:00.985Z,51.20
2023-02-03T13:56:01.845Z,51.80
2023-02-03T13:58:38.614Z,52.60
2023-02-03T14:01:43.850Z,52.60
2023-02-03T14:04:35.085Z,52.90
2023-02-03T14:07:32.517Z,53.40
2023-02-03T14:10:34.111Z,53.20
2023-02-03T14:13:02.844Z,53.80
2023-02-03T14:15:37.692Z,54.10
2023-02-03T14:18:48.915Z,54.00
2023-02-03T14:21:32.105Z,54.50
2023-02-03T14:24:17.110Z,54.70
2023-02-03T14:26:48.932Z,54.80
2023-02-03T14:29:40.150Z,54.50
2023-02-03T14:32:09.669Z,54.60
2023-02-03T14:34:53.705Z,54.80
2023-02-03T14:37:35.106Z,54.70
2023-02-03T14:40:30.906Z,53.70
2023-02-03T14:43:45.324Z,54.30
2023-02-03T14:46:56.170Z,55.20
2023-02-03T14:50:18.489Z,55.90
2023-02-03T14:53:08.383Z,56.10
2023-02-03T14:56:06.176Z,56.80
2023-02-03T14:58:52.506Z,57.40
2023-02-03T15:01:44.995Z,57.50
2023-02-03T15:04:22.008Z,57.90
2023-02-03T15:06:52.390Z,58.30
2023-02-03T15:09:41.690Z,58.10
2023-02-03T15:12:24.609Z,58.80
2023-02-03T15:14:54.033Z,58.40
2023-02-03T15:17:33.453Z,58.60
2023-02-03T15:20:04.137Z,58.90
2023-02-03T15:22:40.971Z,58.50
2023-02-03T15:25:21.523Z,58.60
2023-02-03T15:27:48.565Z,58.90
2023-02-03T15:30:30.879Z,58.80
2023-02-03T15:33:09.425Z,58.80
2023-02-03T15:35:41.219Z,59.20
2023-02-03T15:38:20.477Z,59.30
2023-02-03T15:41:00.892Z,59.30
2023-02-03T15:43:44.173Z,59.20
2023-02-03T15:46:38.748Z,59.40
2023-02-03T15:49:25.619Z,59.80
2023-02-03T15:52:05.869Z,60.10
2023-02-03T15:54:46.177Z,60.00
2023-02-03T15:57:38.011Z,60.10
2023-02-03T16:00:38.342Z,60.10
2023-02-03T16:03:17.723Z,60.30
2023-02-03T16:05:50.557Z,60.30
2023-02-03T16:08:38.031Z,60.40
2023-02-03T16:11:38.126Z,60.30
2023-02-03T16:14:11.284Z,60.30
2023-02-03T16:17:04.394Z,60.40
2023-02-03T16:19:43.031Z,60.60
2023-02-03T16:22:39.452Z,61.10
2023-02-03T16:25:33.044Z,61.00
2023-02-03T16:28:40.097Z,61.20
2023-02-03T16:31:43.048Z,61.40
2023-02-03T16:34:40.332Z,61.10
2023-02-03T16:37:45.674Z,61.20
2023-02-03T16:40:45.090Z,61.60
2023-02-03T16:43:51.893Z,61.60
2023-02-03T16:46:40.254Z,61.50
2023-02-03T16:49:29.757Z,61.50
2023-02-03T16:51:58.950Z,61.50
2023-02-03T16:54:28.425Z,61.50
2023-02-03T16:57:01.086Z,61.40
2023-02-03T16:59:29.011Z,61.60
2023-02-03T17:02:00.426Z,61.70
2023-02-03T17:04:33.408Z,61.70
2023-02-03T17:07:05.532Z,61.60
2023-02-03T17:09:38.111Z,61.50
2023-02-03T17:12:09.689Z,61.40
2023-02-03T17:14:39.539Z,61.50
2023-02-03T17:17:12.299Z,61.40
2023-02-03T17:19:46.589Z,61.30
2023-02-03T17:22:14.877Z,61.30
2023-02-03T17:24:46.384Z,61.40
2023-02-03T17:27:16.766Z,61.30
2023-02-03T17:29:47.274Z,61.30
2023-02-03T17:32:18.439Z,61.10
2023-02-03T17:34:50.698Z,61.10
2023-02-03T17:37:20.322Z,61.10
2023-02-03T17:54:07.936Z,61.10
2023-02-03T17:56:38.174Z,61.10
2023-02-03T17:59:06.292Z,61.20
2023-02-03T18:01:35.427Z,61.10
2023-02-03T18:04:08.679Z,61.20
2023-02-03T18:06:50.788Z,61.20
2023-02-03T18:09:23.073Z,61.30
2023-02-03T18:11:53.761Z,61.40
2023-02-03T18:14:24.861Z,61.40
2023-02-03T18:16:55.685Z,61.40
2023-02-03T18:19:27.124Z,61.40
2023-02-03T18:21:59.687Z,61.40
2023-02-03T18:24:30.568Z,61.40
2023-02-03T18:27:04.713Z,61.50
2023-02-03T18:29:35.683Z,61.50
2023-02-03T18:32:08.146Z,61.60
2023-02-03T18:34:36.161Z,62.20
2023-02-03T18:37:06.736Z,61.60
2023-02-03T18:39:41.282Z,61.80
2023-02-03T18:42:09.442Z,61.90
2023-02-03T18:47:30.379Z,61.70
2023-02-03T18:50:02.175Z,61.70
2023-02-03T18:52:33.685Z,61.70
2023-02-03T18:55:04.665Z,61.70
2023-02-03T18:57:34.068Z,61.60
2023-02-03T19:00:06.820Z,61.60
2023-02-03T19:02:47.622Z,62.30
2023-02-03T19:05:17.341Z,61.60
2023-02-03T19:07:47.532Z,61.50
2023-02-03T19:10:20.439Z,61.40
2023-02-03T19:12:51.921Z,61.40
2023-02-03T19:15:22.544Z,61.20
2023-02-03T19:17:53.755Z,61.30
2023-02-03T19:20:24.522Z,61.30
2023-02-03T19:22:55.139Z,61.10
2023-02-03T19:25:25.048Z,61.20
2023-02-03T19:27:56.498Z,61.20
2023-02-03T19:30:24.647Z,61.30
2023-02-03T19:32:55.916Z,61.30
2023-02-03T19:35:24.827Z,61.20
2023-02-03T19:38:04.916Z,61.40
2023-02-03T19:40:34.575Z,62.00
2023-02-03T19:43:06.559Z,61.20
2023-02-03T19:45:36.878Z,61.30
2023-02-03T19:48:09.733Z,61.30
2023-02-03T19:50:42.601Z,61.20
2023-02-03T19:53:13.091Z,61.30
2023-02-03T19:55:48.127Z,61.30
2023-02-03T19:58:17.429Z,61.20
2023-02-03T20:00:49.030Z,61.20
2023-02-03T20:03:23.078Z,61.10
2023-02-03T20:05:56.179Z,61.30
2023-02-03T20:08:29.302Z,61.30
2023-02-03T20:11:03.019Z,61.20
2023-02-03T20:13:33.141Z,61.20
2023-02-03T20:16:04.200Z,61.30
2023-02-03T20:18:34.489Z,61.20
2023-02-03T20:21:08.418Z,61.30
2023-02-03T20:23:39.238Z,61.30
2023-02-03T20:26:11.991Z,61.30
2023-02-03T20:28:54.108Z,61.20
2023-02-03T20:31:25.583Z,61.30
2023-02-03T20:33:57.057Z,61.30
2023-02-03T20:36:27.759Z,61.20
2023-02-03T20:38:55.224Z,61.40
2023-02-03T20:41:27.151Z,61.30
2023-02-03T20:43:56.242Z,61.30
2023-02-03T20:46:28.165Z,61.20
2023-02-03T20:49:02.670Z,61.30
2023-02-03T20:51:32.345Z,61.90
2023-02-03T20:54:06.767Z,61.40
2023-02-03T20:56:36.627Z,61.40
2023-02-03T20:59:07.853Z,61.50
2023-02-03T21:01:37.367Z,62.30
2023-02-03T21:04:39.573Z,62.50
2023-02-03T21:07:21.025Z,62.90
2023-02-03T21:09:51.661Z,63.10
2023-02-03T21:12:27.007Z,62.90
2023-02-03T21:15:01.745Z,62.70
2023-02-03T21:17:35.580Z,62.60
2023-02-03T21:20:36.721Z,62.70
2023-02-03T21:23:19.865Z,62.50
2023-02-03T21:25:49.021Z,62.50
2023-02-03T21:28:28.918Z,62.20
2023-02-03T21:30:58.128Z,62.20
2023-02-03T21:33:45.865Z,62.00
2023-02-03T21:36:25.283Z,62.10
2023-02-03T21:38:55.294Z,62.10
2023-02-03T21:41:25.009Z,61.40
2023-02-03T21:43:59.651Z,61.00
2023-02-03T21:46:33.192Z,60.70
2023-02-03T21:49:05.338Z,60.20
2023-02-03T21:51:49.432Z,60.20
2023-02-03T21:54:41.568Z,60.10
2023-02-03T21:57:17.467Z,60.20
2023-02-03T21:59:52.705Z,60.10
2023-02-03T22:03:14.688Z,60.10
2023-02-03T22:05:46.736Z,60.30
2023-02-03T22:08:29.162Z,60.20
2023-02-03T22:10:59.898Z,60.20
2023-02-03T22:13:31.969Z,60.30
2023-02-03T22:16:08.085Z,60.30
2023-02-03T22:18:37.343Z,60.30
2023-02-03T22:21:08.285Z,60.40
2023-02-03T22:23:37.949Z,60.30
2023-02-03T22:26:05.814Z,60.40
2023-02-03T22:28:36.567Z,60.40
2023-02-03T22:31:12.138Z,60.40
2023-02-03T22:33:42.747Z,60.30
2023-02-03T22:36:15.287Z,60.40
2023-02-03T22:38:44.361Z,60.50
2023-02-03T22:41:17.051Z,60.40
2023-02-03T22:43:46.830Z,60.30
2023-02-03T22:46:15.679Z,60.50
2023-02-03T22:48:46.836Z,60.50
2023-02-03T22:51:21.265Z,60.50
2023-02-03T22:53:51.608Z,60.50
2023-02-03T22:56:23.710Z,60.60
2023-02-03T22:58:54.041Z,60.60
2023-02-03T23:01:24.664Z,60.70
2023-02-03T23:03:53.439Z,60.60
2023-02-03T23:06:20.323Z,60.70
2023-02-03T23:08:50.980Z,60.80
2023-02-03T23:11:22.860Z,60.90
2023-02-03T23:13:53.214Z,61.00
2023-02-03T23:16:22.980Z,61.00
2023-02-03T23:18:54.919Z,61.10
2023-02-03T23:21:24.842Z,61.00
2023-02-03T23:23:55.772Z,61.10
2023-02-03T23:29:07.757Z,61.30
2023-02-03T23:31:38.510Z,61.30
2023-02-03T23:34:27.511Z,61.40
2023-02-03T23:36:58.118Z,61.40
2023-02-03T23:39:28.370Z,61.40
2023-02-03T23:41:58.167Z,61.40
2023-02-03T23:44:30.510Z,61.50
2023-02-03T23:47:01.834Z,61.50
2023-02-03T23:49:33.414Z,61.60
2023-02-03T23:52:01.834Z,61.60
2023-02-03T23:54:29.955Z,61.70
2023-02-03T23:56:59.400Z,61.70
2023-02-03T23:59:29.582Z,61.70
